sensor_id;sensor_type;location;lat;lon;timestamp;temperature;humidity
39847;DHT22;25517;52.422;10.782;2023-07-20T00:00:01;16.30;99.90
39847;DHT22;25517;52.422;10.782;2023-07-20T00:02:27;16.30;99.90
39847;DHT22;25517;52.422;10.782;2023-07-20T00:04:53;16.20;99.90
39847;DHT22;25517;52.422;10.782;2023-07-20T00:07:18;16.10;99.90
39847;DHT22;25517;52.422;10.782;2023-07-20T00:09:44;16.10;99.90
39847;DHT22;25517;52.422;10.782;2023-07-20T00:12:09;16.00;99.90
39847;DHT22;25517;52.422;10.782;2023-07-20T00:14:35;16.00;99.90
39847;DHT22;25517;52.422;10.782;2023-07-20T00:17:02;15.90;99.90
39847;DHT22;25517;52.422;10.782;2023-07-20T00:19:27;15.90;99.90
39847;DHT22;25517;52.422;10.782;2023-07-20T00:21:54;15.80;99.90
39847;DHT22;25517;52.422;10.782;2023-07-20T00:24:20;15.80;99.90
39847;DHT22;25517;52.422;10.782;2023-07-20T00:26:46;15.80;99.90
39847;DHT22;25517;52.422;10.782;2023-07-20T00:29:12;15.80;99.90
39847;DHT22;25517;52.422;10.782;2023-07-20T00:31:37;15.80;99.90
39847;DHT22;25517;52.422;10.782;2023-07-20T00:34:04;15.70;99.90
39847;DHT22;25517;52.422;10.782;2023-07-20T00:36:29;15.80;99.90
39847;DHT22;25517;52.422;10.782;2023-07-20T00:38:55;15.80;99.90
39847;DHT22;25517;52.422;10.782;2023-07-20T00:41:21;15.80;99.90
39847;DHT22;25517;52.422;10.782;2023-07-20T00:43:46;15.80;99.90
39847;DHT22;25517;52.422;10.782;2023-07-20T00:46:12;15.80;99.90
39847;DHT22;25517;52.422;10.782;2023-07-20T00:48:38;15.80;99.90
39847;DHT22;25517;52.422;10.782;2023-07-20T00:51:04;15.80;99.90
39847;DHT22;25517;52.422;10.782;2023-07-20T00:53:30;15.80;99.90
39847;DHT22;25517;52.422;10.782;2023-07-20T00:55:56;15.80;99.90
39847;DHT22;25517;52.422;10.782;2023-07-20T00:58:23;15.80;99.90
39847;DHT22;25517;52.422;10.782;2023-07-20T01:00:48;15.70;99.90
39847;DHT22;25517;52.422;10.782;2023-07-20T01:03:14;15.70;99.90
39847;DHT22;25517;52.422;10.782;2023-07-20T01:08:39;15.60;99.90
39847;DHT22;25517;52.422;10.782;2023-07-20T01:11:28;15.50;99.90
39847;DHT22;25517;52.422;10.782;2023-07-20T01:13:57;15.50;99.90
39847;DHT22;25517;52.422;10.782;2023-07-20T01:16:23;15.50;99.90
39847;DHT22;25517;52.422;10.782;2023-07-20T01:18:49;15.40;99.90
39847;DHT22;25517;52.422;10.782;2023-07-20T01:21:39;15.40;99.90
39847;DHT22;25517;52.422;10.782;2023-07-20T01:27:00;15.30;99.90
39847;DHT22;25517;52.422;10.782;2023-07-20T01:32:04;15.20;99.90
39847;DHT22;25517;52.422;10.782;2023-07-20T01:34:33;15.10;99.90
39847;DHT22;25517;52.422;10.782;2023-07-20T01:37:01;15.10;99.90
39847;DHT22;25517;52.422;10.782;2023-07-20T01:39:26;15.00;99.90
39847;DHT22;25517;52.422;10.782;2023-07-20T01:41:53;15.00;99.90
39847;DHT22;25517;52.422;10.782;2023-07-20T01:44:18;15.00;99.90
39847;DHT22;25517;52.422;10.782;2023-07-20T01:46:44;15.00;99.90
39847;DHT22;25517;52.422;10.782;2023-07-20T01:49:09;14.90;99.90
39847;DHT22;25517;52.422;10.782;2023-07-20T01:51:35;14.80;99.90
39847;DHT22;25517;52.422;10.782;2023-07-20T01:54:00;14.80;99.90
39847;DHT22;25517;52.422;10.782;2023-07-20T01:56:26;14.80;99.90
39847;DHT22;25517;52.422;10.782;2023-07-20T01:58:51;14.80;99.90
39847;DHT22;25517;52.422;10.782;2023-07-20T02:01:17;14.80;99.90
39847;DHT22;25517;52.422;10.782;2023-07-20T02:03:42;14.70;99.90
39847;DHT22;25517;52.422;10.782;2023-07-20T02:06:08;14.60;99.90
39847;DHT22;25517;52.422;10.782;2023-07-20T02:08:33;14.60;99.90
39847;DHT22;25517;52.422;10.782;2023-07-20T02:10:59;14.60;99.90
39847;DHT22;25517;52.422;10.782;2023-07-20T02:13:25;14.60;99.90
39847;DHT22;25517;52.422;10.782;2023-07-20T02:15:50;14.60;99.90
39847;DHT22;25517;52.422;10.782;2023-07-20T02:18:16;14.60;99.90
39847;DHT22;25517;52.422;10.782;2023-07-20T02:20:42;14.50;99.90
39847;DHT22;25517;52.422;10.782;2023-07-20T02:23:07;14.50;99.90
39847;DHT22;25517;52.422;10.782;2023-07-20T02:25:33;14.50;99.90
39847;DHT22;25517;52.422;10.782;2023-07-20T02:27:58;14.50;99.90
39847;DHT22;25517;52.422;10.782;2023-07-20T02:30:24;14.50;99.90
39847;DHT22;25517;52.422;10.782;2023-07-20T02:32:50;14.50;99.90
39847;DHT22;25517;52.422;10.782;2023-07-20T02:35:16;14.50;99.90
39847;DHT22;25517;52.422;10.782;2023-07-20T02:37:41;14.50;99.90
39847;DHT22;25517;52.422;10.782;2023-07-20T02:40:07;14.50;99.90
39847;DHT22;25517;52.422;10.782;2023-07-20T02:42:34;14.60;99.90
39847;DHT22;25517;52.422;10.782;2023-07-20T02:44:59;14.60;99.90
39847;DHT22;25517;52.422;10.782;2023-07-20T02:47:25;14.60;99.90
39847;DHT22;25517;52.422;10.782;2023-07-20T02:49:50;14.60;99.90
39847;DHT22;25517;52.422;10.782;2023-07-20T02:52:16;14.60;99.90
39847;DHT22;25517;52.422;10.782;2023-07-20T02:54:41;14.70;99.90
39847;DHT22;25517;52.422;10.782;2023-07-20T02:57:07;14.70;99.90
39847;DHT22;25517;52.422;10.782;2023-07-20T02:59:32;14.60;99.90
39847;DHT22;25517;52.422;10.782;2023-07-20T03:01:58;14.60;99.90
39847;DHT22;25517;52.422;10.782;2023-07-20T03:04:26;14.60;99.90
39847;DHT22;25517;52.422;10.782;2023-07-20T03:06:52;14.60;99.90
39847;DHT22;25517;52.422;10.782;2023-07-20T03:09:17;14.60;99.90
39847;DHT22;25517;52.422;10.782;2023-07-20T03:11:43;14.60;99.90
39847;DHT22;25517;52.422;10.782;2023-07-20T03:14:08;14.60;99.90
39847;DHT22;25517;52.422;10.782;2023-07-20T03:16:36;14.60;99.90
39847;DHT22;25517;52.422;10.782;2023-07-20T03:19:01;14.60;99.90
39847;DHT22;25517;52.422;10.782;2023-07-20T03:21:27;14.60;99.90
39847;DHT22;25517;52.422;10.782;2023-07-20T03:23:52;14.50;99.90
39847;DHT22;25517;52.422;10.782;2023-07-20T03:26:18;14.50;99.90
39847;DHT22;25517;52.422;10.782;2023-07-20T03:28:43;14.50;99.90
39847;DHT22;25517;52.422;10.782;2023-07-20T03:31:09;14.50;99.90
39847;DHT22;25517;52.422;10.782;2023-07-20T03:33:35;14.50;99.90
39847;DHT22;25517;52.422;10.782;2023-07-20T03:36:00;14.50;99.90
39847;DHT22;25517;52.422;10.782;2023-07-20T03:38:27;14.50;99.90
39847;DHT22;25517;52.422;10.782;2023-07-20T03:40:56;14.50;99.90
39847;DHT22;25517;52.422;10.782;2023-07-20T03:43:23;14.50;99.90
39847;DHT22;25517;52.422;10.782;2023-07-20T03:45:49;14.50;99.90
39847;DHT22;25517;52.422;10.782;2023-07-20T03:48:16;14.50;99.90
39847;DHT22;25517;52.422;10.782;2023-07-20T03:50:44;14.40;99.90
39847;DHT22;25517;52.422;10.782;2023-07-20T03:53:09;14.40;99.90
39847;DHT22;25517;52.422;10.782;2023-07-20T03:55:35;14.40;99.90
39847;DHT22;25517;52.422;10.782;2023-07-20T03:58:01;14.40;99.90
39847;DHT22;25517;52.422;10.782;2023-07-20T04:00:27;14.40;99.90
39847;DHT22;25517;52.422;10.782;2023-07-20T04:02:52;14.50;99.90
39847;DHT22;25517;52.422;10.782;2023-07-20T04:05:18;14.50;99.90
39847;DHT22;25517;52.422;10.782;2023-07-20T04:07:43;14.50;99.90
39847;DHT22;25517;52.422;10.782;2023-07-20T04:10:09;14.50;99.90
39847;DHT22;25517;52.422;10.782;2023-07-20T04:12:35;14.50;99.90
39847;DHT22;25517;52.422;10.782;2023-07-20T04:15:01;14.50;99.90
39847;DHT22;25517;52.422;10.782;2023-07-20T04:17:28;14.60;99.90
39847;DHT22;25517;52.422;10.782;2023-07-20T04:19:54;14.60;99.90
39847;DHT22;25517;52.422;10.782;2023-07-20T04:22:19;14.70;99.90
39847;DHT22;25517;52.422;10.782;2023-07-20T04:24:45;14.60;99.90
39847;DHT22;25517;52.422;10.782;2023-07-20T04:27:10;14.70;99.90
39847;DHT22;25517;52.422;10.782;2023-07-20T04:29:36;14.80;99.90
39847;DHT22;25517;52.422;10.782;2023-07-20T04:32:01;14.80;99.90
39847;DHT22;25517;52.422;10.782;2023-07-20T04:34:27;14.80;99.90
39847;DHT22;25517;52.422;10.782;2023-07-20T04:36:53;14.90;99.90
39847;DHT22;25517;52.422;10.782;2023-07-20T04:39:18;14.90;99.90
39847;DHT22;25517;52.422;10.782;2023-07-20T04:41:44;14.90;99.90
39847;DHT22;25517;52.422;10.782;2023-07-20T04:44:09;14.90;99.90
39847;DHT22;25517;52.422;10.782;2023-07-20T04:46:35;14.80;99.90
39847;DHT22;25517;52.422;10.782;2023-07-20T04:49:00;14.90;99.90
39847;DHT22;25517;52.422;10.782;2023-07-20T04:51:27;14.90;99.90
39847;DHT22;25517;52.422;10.782;2023-07-20T04:53:52;15.00;99.90
39847;DHT22;25517;52.422;10.782;2023-07-20T04:56:18;15.00;99.90
39847;DHT22;25517;52.422;10.782;2023-07-20T04:58:43;15.20;99.90
39847;DHT22;25517;52.422;10.782;2023-07-20T05:01:09;15.30;99.90
39847;DHT22;25517;52.422;10.782;2023-07-20T05:03:34;15.30;99.90
39847;DHT22;25517;52.422;10.782;2023-07-20T05:06:00;15.50;99.90
39847;DHT22;25517;52.422;10.782;2023-07-20T05:08:25;15.60;99.90
39847;DHT22;25517;52.422;10.782;2023-07-20T05:10:51;15.70;99.90
39847;DHT22;25517;52.422;10.782;2023-07-20T05:13:16;15.80;99.90
39847;DHT22;25517;52.422;10.782;2023-07-20T05:15:42;15.90;99.90
39847;DHT22;25517;52.422;10.782;2023-07-20T05:18:07;15.90;99.90
39847;DHT22;25517;52.422;10.782;2023-07-20T05:20:34;15.90;99.90
39847;DHT22;25517;52.422;10.782;2023-07-20T05:23:00;15.90;99.90
39847;DHT22;25517;52.422;10.782;2023-07-20T05:25:26;15.90;99.90
39847;DHT22;25517;52.422;10.782;2023-07-20T05:27:52;15.80;99.90
39847;DHT22;25517;52.422;10.782;2023-07-20T05:30:18;15.80;99.90
39847;DHT22;25517;52.422;10.782;2023-07-20T05:32:44;15.90;99.90
39847;DHT22;25517;52.422;10.782;2023-07-20T05:35:12;15.90;99.90
39847;DHT22;25517;52.422;10.782;2023-07-20T05:37:39;15.90;99.90
39847;DHT22;25517;52.422;10.782;2023-07-20T05:40:05;15.90;99.90
39847;DHT22;25517;52.422;10.782;2023-07-20T05:42:33;15.90;99.90
39847;DHT22;25517;52.422;10.782;2023-07-20T05:44:58;16.00;99.90
39847;DHT22;25517;52.422;10.782;2023-07-20T05:47:24;16.00;99.90
39847;DHT22;25517;52.422;10.782;2023-07-20T05:49:49;15.90;99.90
39847;DHT22;25517;52.422;10.782;2023-07-20T05:52:15;15.90;99.90
39847;DHT22;25517;52.422;10.782;2023-07-20T05:54:40;15.90;99.90
39847;DHT22;25517;52.422;10.782;2023-07-20T05:57:06;15.90;99.90
39847;DHT22;25517;52.422;10.782;2023-07-20T05:59:31;15.80;99.90
39847;DHT22;25517;52.422;10.782;2023-07-20T06:01:57;15.90;99.90
39847;DHT22;25517;52.422;10.782;2023-07-20T06:04:23;15.80;99.90
39847;DHT22;25517;52.422;10.782;2023-07-20T06:06:49;15.80;99.90
39847;DHT22;25517;52.422;10.782;2023-07-20T06:09:14;15.80;99.90
39847;DHT22;25517;52.422;10.782;2023-07-20T06:11:40;15.70;99.90
39847;DHT22;25517;52.422;10.782;2023-07-20T06:14:06;15.60;99.90
39847;DHT22;25517;52.422;10.782;2023-07-20T06:16:32;15.60;99.90
39847;DHT22;25517;52.422;10.782;2023-07-20T06:18:59;15.60;99.90
39847;DHT22;25517;52.422;10.782;2023-07-20T06:21:25;15.60;99.90
39847;DHT22;25517;52.422;10.782;2023-07-20T06:23:51;15.60;99.90
39847;DHT22;25517;52.422;10.782;2023-07-20T06:26:16;15.60;99.90
39847;DHT22;25517;52.422;10.782;2023-07-20T06:28:42;15.60;99.90
39847;DHT22;25517;52.422;10.782;2023-07-20T06:31:07;15.60;99.90
39847;DHT22;25517;52.422;10.782;2023-07-20T06:33:33;15.60;99.90
39847;DHT22;25517;52.422;10.782;2023-07-20T06:36:00;15.70;99.90
39847;DHT22;25517;52.422;10.782;2023-07-20T06:38:25;15.70;99.90
39847;DHT22;25517;52.422;10.782;2023-07-20T06:40:51;15.60;99.90
39847;DHT22;25517;52.422;10.782;2023-07-20T06:43:17;15.70;99.90
39847;DHT22;25517;52.422;10.782;2023-07-20T06:45:42;15.60;99.90
39847;DHT22;25517;52.422;10.782;2023-07-20T06:48:08;15.60;99.90
39847;DHT22;25517;52.422;10.782;2023-07-20T06:50:34;15.50;99.90
39847;DHT22;25517;52.422;10.782;2023-07-20T06:52:59;15.40;99.90
39847;DHT22;25517;52.422;10.782;2023-07-20T06:55:25;15.30;99.90
39847;DHT22;25517;52.422;10.782;2023-07-20T06:57:51;15.40;99.90
39847;DHT22;25517;52.422;10.782;2023-07-20T07:00:17;15.30;99.90
39847;DHT22;25517;52.422;10.782;2023-07-20T07:02:43;15.30;99.90
39847;DHT22;25517;52.422;10.782;2023-07-20T07:05:08;15.20;99.90
39847;DHT22;25517;52.422;10.782;2023-07-20T07:07:34;15.20;99.90
39847;DHT22;25517;52.422;10.782;2023-07-20T07:10:00;15.20;99.90
39847;DHT22;25517;52.422;10.782;2023-07-20T07:12:26;15.10;99.90
39847;DHT22;25517;52.422;10.782;2023-07-20T07:14:51;15.20;99.90
39847;DHT22;25517;52.422;10.782;2023-07-20T07:17:17;15.30;99.90
39847;DHT22;25517;52.422;10.782;2023-07-20T07:19:43;15.40;99.90
39847;DHT22;25517;52.422;10.782;2023-07-20T07:22:09;15.60;99.90
39847;DHT22;25517;52.422;10.782;2023-07-20T07:24:35;15.60;99.90
39847;DHT22;25517;52.422;10.782;2023-07-20T07:27:01;15.80;99.90
39847;DHT22;25517;52.422;10.782;2023-07-20T07:29:27;15.90;99.90
39847;DHT22;25517;52.422;10.782;2023-07-20T07:31:53;16.00;99.90
39847;DHT22;25517;52.422;10.782;2023-07-20T07:34:18;16.10;99.90
39847;DHT22;25517;52.422;10.782;2023-07-20T07:36:44;16.20;99.90
39847;DHT22;25517;52.422;10.782;2023-07-20T07:39:10;16.40;99.90
39847;DHT22;25517;52.422;10.782;2023-07-20T07:41:36;16.60;99.90
39847;DHT22;25517;52.422;10.782;2023-07-20T07:44:02;16.90;99.90
39847;DHT22;25517;52.422;10.782;2023-07-20T07:46:27;17.20;99.90
39847;DHT22;25517;52.422;10.782;2023-07-20T07:48:53;17.50;99.90
39847;DHT22;25517;52.422;10.782;2023-07-20T07:51:18;17.80;99.90
39847;DHT22;25517;52.422;10.782;2023-07-20T07:53:45;18.00;99.90
39847;DHT22;25517;52.422;10.782;2023-07-20T07:56:11;18.30;99.90
39847;DHT22;25517;52.422;10.782;2023-07-20T07:58:36;18.40;99.90
39847;DHT22;25517;52.422;10.782;2023-07-20T08:01:02;18.70;99.90
39847;DHT22;25517;52.422;10.782;2023-07-20T08:03:28;19.20;99.90
39847;DHT22;25517;52.422;10.782;2023-07-20T08:05:54;19.20;99.90
39847;DHT22;25517;52.422;10.782;2023-07-20T08:08:25;19.10;99.90
39847;DHT22;25517;52.422;10.782;2023-07-20T08:10:53;18.90;99.90
39847;DHT22;25517;52.422;10.782;2023-07-20T08:13:19;18.80;99.90
39847;DHT22;25517;52.422;10.782;2023-07-20T08:15:48;19.00;99.90
39847;DHT22;25517;52.422;10.782;2023-07-20T08:18:14;19.00;99.90
39847;DHT22;25517;52.422;10.782;2023-07-20T08:20:43;19.20;99.90
39847;DHT22;25517;52.422;10.782;2023-07-20T08:23:08;19.50;99.90
39847;DHT22;25517;52.422;10.782;2023-07-20T08:25:36;19.60;99.90
39847;DHT22;25517;52.422;10.782;2023-07-20T08:28:04;20.00;99.90
39847;DHT22;25517;52.422;10.782;2023-07-20T08:30:46;20.90;99.30
39847;DHT22;25517;52.422;10.782;2023-07-20T08:33:17;21.70;97.00
39847;DHT22;25517;52.422;10.782;2023-07-20T08:35:44;22.70;95.20
39847;DHT22;25517;52.422;10.782;2023-07-20T08:38:10;23.60;93.10
39847;DHT22;25517;52.422;10.782;2023-07-20T08:40:44;24.30;91.30
39847;DHT22;25517;52.422;10.782;2023-07-20T08:43:11;25.10;86.10
39847;DHT22;25517;52.422;10.782;2023-07-20T08:45:39;25.90;83.10
39847;DHT22;25517;52.422;10.782;2023-07-20T08:48:06;26.60;80.10
39847;DHT22;25517;52.422;10.782;2023-07-20T08:50:32;27.30;79.20
39847;DHT22;25517;52.422;10.782;2023-07-20T08:52:59;28.10;76.10
39847;DHT22;25517;52.422;10.782;2023-07-20T08:55:26;28.50;75.20
39847;DHT22;25517;52.422;10.782;2023-07-20T08:57:54;29.70;72.10
39847;DHT22;25517;52.422;10.782;2023-07-20T09:00:21;29.80;68.20
39847;DHT22;25517;52.422;10.782;2023-07-20T09:02:49;29.20;68.10
39847;DHT22;25517;52.422;10.782;2023-07-20T09:05:15;28.20;70.20
39847;DHT22;25517;52.422;10.782;2023-07-20T09:07:41;27.40;71.50
39847;DHT22;25517;52.422;10.782;2023-07-20T09:10:07;26.30;73.40
39847;DHT22;25517;52.422;10.782;2023-07-20T09:12:40;26.10;75.00
39847;DHT22;25517;52.422;10.782;2023-07-20T09:15:07;25.50;76.10
39847;DHT22;25517;52.422;10.782;2023-07-20T09:17:33;25.10;77.20
39847;DHT22;25517;52.422;10.782;2023-07-20T09:20:02;25.00;78.70
39847;DHT22;25517;52.422;10.782;2023-07-20T09:22:33;26.10;76.60
39847;DHT22;25517;52.422;10.782;2023-07-20T09:24:59;27.50;73.00
39847;DHT22;25517;52.422;10.782;2023-07-20T09:27:38;28.40;69.70
39847;DHT22;25517;52.422;10.782;2023-07-20T09:30:04;29.40;65.20
39847;DHT22;25517;52.422;10.782;2023-07-20T09:32:38;30.20;65.30
39847;DHT22;25517;52.422;10.782;2023-07-20T09:35:05;31.20;63.10
39847;DHT22;25517;52.422;10.782;2023-07-20T09:37:33;31.90;63.10
39847;DHT22;25517;52.422;10.782;2023-07-20T09:39:59;31.40;58.90
39847;DHT22;25517;52.422;10.782;2023-07-20T09:42:25;31.40;57.80
39847;DHT22;25517;52.422;10.782;2023-07-20T09:44:51;31.90;58.30
39847;DHT22;25517;52.422;10.782;2023-07-20T09:47:23;32.40;58.50
39847;DHT22;25517;52.422;10.782;2023-07-20T09:49:49;33.20;57.00
39847;DHT22;25517;52.422;10.782;2023-07-20T09:52:15;33.50;57.00
39847;DHT22;25517;52.422;10.782;2023-07-20T09:54:44;32.90;55.00
39847;DHT22;25517;52.422;10.782;2023-07-20T09:57:11;32.90;54.10
39847;DHT22;25517;52.422;10.782;2023-07-20T09:59:39;32.40;52.10
39847;DHT22;25517;52.422;10.782;2023-07-20T10:02:12;32.90;53.40
39847;DHT22;25517;52.422;10.782;2023-07-20T10:04:43;32.90;52.80
39847;DHT22;25517;52.422;10.782;2023-07-20T10:07:10;33.30;51.40
39847;DHT22;25517;52.422;10.782;2023-07-20T10:09:40;33.70;52.50
39847;DHT22;25517;52.422;10.782;2023-07-20T10:12:09;33.20;52.70
39847;DHT22;25517;52.422;10.782;2023-07-20T10:14:41;33.20;52.30
39847;DHT22;25517;52.422;10.782;2023-07-20T10:17:11;33.40;51.40
39847;DHT22;25517;52.422;10.782;2023-07-20T10:19:46;33.70;51.20
39847;DHT22;25517;52.422;10.782;2023-07-20T10:22:14;34.00;48.80
39847;DHT22;25517;52.422;10.782;2023-07-20T10:24:45;33.80;50.40
39847;DHT22;25517;52.422;10.782;2023-07-20T10:27:11;33.90;49.60
39847;DHT22;25517;52.422;10.782;2023-07-20T10:29:37;33.50;48.50
39847;DHT22;25517;52.422;10.782;2023-07-20T10:32:03;31.80;50.70
39847;DHT22;25517;52.422;10.782;2023-07-20T10:34:29;30.90;52.00
39847;DHT22;25517;52.422;10.782;2023-07-20T10:36:55;31.50;53.00
39847;DHT22;25517;52.422;10.782;2023-07-20T10:39:28;32.30;51.40
39847;DHT22;25517;52.422;10.782;2023-07-20T10:42:09;32.60;52.10
39847;DHT22;25517;52.422;10.782;2023-07-20T10:44:39;33.10;52.10
39847;DHT22;25517;52.422;10.782;2023-07-20T10:47:12;33.70;51.30
39847;DHT22;25517;52.422;10.782;2023-07-20T10:49:57;33.00;49.00
39847;DHT22;25517;52.422;10.782;2023-07-20T10:52:23;31.80;51.50
39847;DHT22;25517;52.422;10.782;2023-07-20T10:54:48;30.80;51.10
39847;DHT22;25517;52.422;10.782;2023-07-20T10:57:24;29.70;52.00
39847;DHT22;25517;52.422;10.782;2023-07-20T10:59:50;29.50;53.80
39847;DHT22;25517;52.422;10.782;2023-07-20T11:02:18;29.60;52.60
39847;DHT22;25517;52.422;10.782;2023-07-20T11:04:46;28.50;53.90
39847;DHT22;25517;52.422;10.782;2023-07-20T11:07:16;27.50;55.70
39847;DHT22;25517;52.422;10.782;2023-07-20T11:09:42;26.60;58.60
39847;DHT22;25517;52.422;10.782;2023-07-20T11:12:15;26.20;60.10
39847;DHT22;25517;52.422;10.782;2023-07-20T11:14:57;27.30;59.10
39847;DHT22;25517;52.422;10.782;2023-07-20T11:17:33;28.70;58.60
39847;DHT22;25517;52.422;10.782;2023-07-20T11:20:01;29.80;55.00
39847;DHT22;25517;52.422;10.782;2023-07-20T11:22:28;31.10;51.90
39847;DHT22;25517;52.422;10.782;2023-07-20T11:24:56;31.60;52.70
39847;DHT22;25517;52.422;10.782;2023-07-20T11:27:22;32.60;52.40
39847;DHT22;25517;52.422;10.782;2023-07-20T11:29:48;33.60;50.60
39847;DHT22;25517;52.422;10.782;2023-07-20T11:32:20;32.80;50.40
39847;DHT22;25517;52.422;10.782;2023-07-20T11:34:47;31.40;50.20
39847;DHT22;25517;52.422;10.782;2023-07-20T11:37:13;30.00;52.80
39847;DHT22;25517;52.422;10.782;2023-07-20T11:39:38;28.60;55.10
39847;DHT22;25517;52.422;10.782;2023-07-20T11:42:05;27.30;57.20
39847;DHT22;25517;52.422;10.782;2023-07-20T11:44:32;26.60;58.50
39847;DHT22;25517;52.422;10.782;2023-07-20T11:49:28;29.20;56.10
39847;DHT22;25517;52.422;10.782;2023-07-20T11:51:54;30.50;54.40
39847;DHT22;25517;52.422;10.782;2023-07-20T11:54:20;31.00;53.90
39847;DHT22;25517;52.422;10.782;2023-07-20T11:56:46;31.10;52.00
39847;DHT22;25517;52.422;10.782;2023-07-20T11:59:11;30.50;53.70
39847;DHT22;25517;52.422;10.782;2023-07-20T12:01:37;29.10;54.00
39847;DHT22;25517;52.422;10.782;2023-07-20T12:04:03;29.00;55.10
39847;DHT22;25517;52.422;10.782;2023-07-20T12:06:30;29.20;54.50
39847;DHT22;25517;52.422;10.782;2023-07-20T12:08:57;28.20;55.80
39847;DHT22;25517;52.422;10.782;2023-07-20T12:11:39;27.30;56.10
39847;DHT22;25517;52.422;10.782;2023-07-20T12:14:07;26.40;58.10
39847;DHT22;25517;52.422;10.782;2023-07-20T12:16:34;26.00;58.80
39847;DHT22;25517;52.422;10.782;2023-07-20T12:19:05;26.60;61.60
39847;DHT22;25517;52.422;10.782;2023-07-20T12:21:32;27.20;59.90
39847;DHT22;25517;52.422;10.782;2023-07-20T12:23:58;27.40;58.80
39847;DHT22;25517;52.422;10.782;2023-07-20T12:26:25;27.60;58.00
39847;DHT22;25517;52.422;10.782;2023-07-20T12:28:51;27.70;55.50
39847;DHT22;25517;52.422;10.782;2023-07-20T12:31:17;28.10;55.60
39847;DHT22;25517;52.422;10.782;2023-07-20T12:33:43;28.10;54.00
39847;DHT22;25517;52.422;10.782;2023-07-20T12:36:09;27.90;55.40
39847;DHT22;25517;52.422;10.782;2023-07-20T12:38:35;27.70;55.20
39847;DHT22;25517;52.422;10.782;2023-07-20T12:41:02;27.90;56.00
39847;DHT22;25517;52.422;10.782;2023-07-20T12:43:28;27.60;54.30
39847;DHT22;25517;52.422;10.782;2023-07-20T12:45:54;27.70;56.40
39847;DHT22;25517;52.422;10.782;2023-07-20T12:48:20;27.50;55.20
39847;DHT22;25517;52.422;10.782;2023-07-20T12:50:45;27.50;53.90
39847;DHT22;25517;52.422;10.782;2023-07-20T12:53:11;27.80;54.60
39847;DHT22;25517;52.422;10.782;2023-07-20T12:55:37;27.80;54.50
39847;DHT22;25517;52.422;10.782;2023-07-20T12:58:04;28.00;54.50
39847;DHT22;25517;52.422;10.782;2023-07-20T13:00:29;28.00;52.60
39847;DHT22;25517;52.422;10.782;2023-07-20T13:02:55;28.00;54.30
39847;DHT22;25517;52.422;10.782;2023-07-20T13:05:20;28.10;54.60
39847;DHT22;25517;52.422;10.782;2023-07-20T13:07:46;28.20;53.60
39847;DHT22;25517;52.422;10.782;2023-07-20T13:10:12;27.90;51.90
39847;DHT22;25517;52.422;10.782;2023-07-20T13:12:38;27.70;52.70
39847;DHT22;25517;52.422;10.782;2023-07-20T13:15:06;27.60;54.30
39847;DHT22;25517;52.422;10.782;2023-07-20T13:17:33;27.60;55.80
39847;DHT22;25517;52.422;10.782;2023-07-20T13:19:58;27.50;54.60
39847;DHT22;25517;52.422;10.782;2023-07-20T13:22:24;27.50;54.40
39847;DHT22;25517;52.422;10.782;2023-07-20T13:24:49;27.50;55.40
39847;DHT22;25517;52.422;10.782;2023-07-20T13:27:19;27.60;55.20
39847;DHT22;25517;52.422;10.782;2023-07-20T13:29:46;27.70;55.00
39847;DHT22;25517;52.422;10.782;2023-07-20T13:32:14;27.70;54.10
39847;DHT22;25517;52.422;10.782;2023-07-20T13:34:43;27.40;53.00
39847;DHT22;25517;52.422;10.782;2023-07-20T13:37:10;27.30;53.50
39847;DHT22;25517;52.422;10.782;2023-07-20T13:39:36;27.00;53.40
39847;DHT22;25517;52.422;10.782;2023-07-20T13:42:01;27.10;55.40
39847;DHT22;25517;52.422;10.782;2023-07-20T13:44:33;27.40;55.60
39847;DHT22;25517;52.422;10.782;2023-07-20T13:46:59;27.40;54.70
39847;DHT22;25517;52.422;10.782;2023-07-20T13:49:24;26.90;55.60
39847;DHT22;25517;52.422;10.782;2023-07-20T13:51:50;26.50;55.20
39847;DHT22;25517;52.422;10.782;2023-07-20T13:54:15;26.10;56.30
39847;DHT22;25517;52.422;10.782;2023-07-20T13:56:41;25.60;55.90
39847;DHT22;25517;52.422;10.782;2023-07-20T13:59:06;25.20;56.70
39847;DHT22;25517;52.422;10.782;2023-07-20T14:01:32;24.80;57.70
39847;DHT22;25517;52.422;10.782;2023-07-20T14:04:02;24.60;58.10
39847;DHT22;25517;52.422;10.782;2023-07-20T14:06:32;24.30;58.70
39847;DHT22;25517;52.422;10.782;2023-07-20T14:08:58;24.30;59.90
39847;DHT22;25517;52.422;10.782;2023-07-20T14:11:24;24.30;60.90
39847;DHT22;25517;52.422;10.782;2023-07-20T14:13:51;24.30;60.40
39847;DHT22;25517;52.422;10.782;2023-07-20T14:16:18;24.30;59.10
39847;DHT22;25517;52.422;10.782;2023-07-20T14:18:43;24.40;58.80
39847;DHT22;25517;52.422;10.782;2023-07-20T14:21:12;24.30;58.60
39847;DHT22;25517;52.422;10.782;2023-07-20T14:23:38;24.20;59.70
39847;DHT22;25517;52.422;10.782;2023-07-20T14:26:03;24.20;60.70
39847;DHT22;25517;52.422;10.782;2023-07-20T14:28:34;24.20;60.80
39847;DHT22;25517;52.422;10.782;2023-07-20T14:30:59;24.20;60.30
39847;DHT22;25517;52.422;10.782;2023-07-20T14:33:25;24.20;61.40
39847;DHT22;25517;52.422;10.782;2023-07-20T14:35:50;24.20;60.60
39847;DHT22;25517;52.422;10.782;2023-07-20T14:38:16;24.00;60.40
39847;DHT22;25517;52.422;10.782;2023-07-20T14:40:42;23.80;59.70
39847;DHT22;25517;52.422;10.782;2023-07-20T14:43:08;23.70;60.50
39847;DHT22;25517;52.422;10.782;2023-07-20T14:45:33;23.50;61.00
39847;DHT22;25517;52.422;10.782;2023-07-20T14:47:59;23.40;62.60
39847;DHT22;25517;52.422;10.782;2023-07-20T14:50:25;23.20;61.90
39847;DHT22;25517;52.422;10.782;2023-07-20T14:52:50;23.10;63.00
39847;DHT22;25517;52.422;10.782;2023-07-20T14:55:16;23.00;63.20
39847;DHT22;25517;52.422;10.782;2023-07-20T14:57:42;23.00;64.00
39847;DHT22;25517;52.422;10.782;2023-07-20T15:00:08;22.90;64.30
39847;DHT22;25517;52.422;10.782;2023-07-20T15:02:36;22.90;63.80
39847;DHT22;25517;52.422;10.782;2023-07-20T15:05:02;22.90;63.40
39847;DHT22;25517;52.422;10.782;2023-07-20T15:07:28;23.00;63.20
39847;DHT22;25517;52.422;10.782;2023-07-20T15:09:54;23.00;62.80
39847;DHT22;25517;52.422;10.782;2023-07-20T15:12:19;23.00;62.60
39847;DHT22;25517;52.422;10.782;2023-07-20T15:15:05;23.10;63.40
39847;DHT22;25517;52.422;10.782;2023-07-20T15:17:31;23.10;64.10
39847;DHT22;25517;52.422;10.782;2023-07-20T15:19:57;23.20;63.40
39847;DHT22;25517;52.422;10.782;2023-07-20T15:22:23;23.50;63.90